Time;durP1;ratioP1;P1;durP2;ratioP2;P2;SDS_P1;SDS_P2;PMS_P1;PMS_P2;Temp;Humidity;BMP_temperature;BMP_pressure;BME280_temperature;BME280_humidity;BME280_pressure;Samples;Min_cycle;Max_cycle;Signal;HPM_P1;HPM_P2
2023/04/30 00:02:08;;;;;;;;;;;11.10;99.90;;;;;;7334360;19;109804;-66
2023/04/30 00:04:35;;;;;;;;;;;11.10;99.90;;;;;;7335929;19;109339;-66
2023/04/30 00:07:02;;;;;;;;;;;11.10;99.90;;;;;;7332508;19;110808;-69
2023/04/30 00:09:29;;;;;;;;;;;11.10;99.90;;;;;;7341082;19;109830;-66
2023/04/30 00:11:56;;;;;;;;;;;11.10;99.90;;;;;;7332099;19;110892;-66
2023/04/30 00:14:24;;;;;;;;;;;11.10;99.90;;;;;;7334656;19;110290;-66
2023/04/30 00:16:51;;;;;;;;;;;11.00;99.90;;;;;;7331887;19;110296;-67
2023/04/30 00:19:18;;;;;;;;;;;11.00;99.90;;;;;;7333744;19;110220;-66
2023/04/30 00:21:46;;;;;;;;;;;11.00;99.90;;;;;;7337164;19;110583;-66
2023/04/30 00:24:13;;;;;;;;;;;11.00;99.90;;;;;;7338734;19;115092;-66
2023/04/30 00:26:41;;;;;;;;;;;10.90;99.90;;;;;;7335167;19;111421;-66
2023/04/30 00:29:09;;;;;;;;;;;10.80;99.90;;;;;;7338981;19;114930;-66
2023/04/30 00:31:36;;;;;;;;;;;10.70;99.90;;;;;;7336680;19;110305;-67
2023/04/30 00:34:03;;;;;;;;;;;10.70;99.90;;;;;;7334486;19;109793;-65
2023/04/30 00:36:30;;;;;;;;;;;10.60;99.90;;;;;;7337764;19;110882;-67
2023/04/30 00:38:57;;;;;;;;;;;10.60;99.90;;;;;;7334430;19;111699;-67
2023/04/30 00:41:24;;;;;;;;;;;10.60;99.90;;;;;;7337877;19;109621;-67
2023/04/30 00:43:51;;;;;;;;;;;10.50;99.90;;;;;;7335644;19;112488;-65
2023/04/30 00:46:18;;;;;;;;;;;10.40;99.90;;;;;;7328920;19;111746;-67
2023/04/30 00:48:46;;;;;;;;;;;10.30;99.90;;;;;;7331499;19;109670;-66
2023/04/30 00:51:12;;;;;;;;;;;10.30;99.90;;;;;;7341548;19;110069;-68
2023/04/30 00:53:40;;;;;;;;;;;10.30;99.90;;;;;;7335931;19;109617;-72
2023/04/30 00:56:08;;;;;;;;;;;10.30;99.90;;;;;;7339404;19;110636;-70
2023/04/30 00:58:35;;;;;;;;;;;10.30;99.90;;;;;;7333762;19;110900;-70
2023/04/30 01:01:02;;;;;;;;;;;10.30;99.90;;;;;;7331597;19;110302;-66
2023/04/30 01:03:29;;;;;;;;;;;10.30;99.90;;;;;;7337085;19;109389;-66
2023/04/30 01:05:57;;;;;;;;;;;10.30;99.90;;;;;;7332116;19;110132;-66
2023/04/30 01:08:25;;;;;;;;;;;10.20;99.90;;;;;;7336664;19;110298;-66
2023/04/30 01:11:00;;;;;;;;;;;10.10;99.90;;;;;;7332438;19;111831;-66
2023/04/30 01:13:30;;;;;;;;;;;10.10;99.90;;;;;;7338004;19;112031;-66
2023/04/30 01:16:16;;;;;;;;;;;10.10;99.90;;;;;;7333605;19;110106;-66
2023/04/30 01:19:04;;;;;;;;;;;10.10;99.90;;;;;;7333043;19;112148;-66
2023/04/30 01:21:32;;;;;;;;;;;10.00;99.90;;;;;;7334299;19;110475;-66
2023/04/30 01:24:13;;;;;;;;;;;10.10;99.90;;;;;;7331126;19;110591;-66
2023/04/30 01:26:58;;;;;;;;;;;10.10;99.90;;;;;;7332488;19;110200;-66
2023/04/30 01:29:26;;;;;;;;;;;10.00;99.90;;;;;;7334589;19;109935;-65
2023/04/30 01:31:53;;;;;;;;;;;9.90;99.90;;;;;;7334984;19;110191;-66
2023/04/30 01:34:20;;;;;;;;;;;9.90;99.90;;;;;;7330071;19;110559;-65
2023/04/30 01:37:05;;;;;;;;;;;9.80;99.90;;;;;;7339999;19;109982;-65
2023/04/30 01:39:47;;;;;;;;;;;9.80;99.90;;;;;;7334291;19;110628;-65
2023/04/30 01:42:40;;;;;;;;;;;9.80;99.90;;;;;;7332477;19;110052;-66
2023/04/30 01:45:07;;;;;;;;;;;9.80;99.90;;;;;;7332922;19;112115;-66
2023/04/30 01:47:53;;;;;;;;;;;9.80;99.90;;;;;;7334582;19;112052;-65
2023/04/30 01:50:38;;;;;;;;;;;9.80;99.90;;;;;;7333934;19;109354;-66
2023/04/30 01:53:08;;;;;;;;;;;9.80;99.90;;;;;;7330940;19;113547;-65
2023/04/30 01:55:40;;;;;;;;;;;9.70;99.90;;;;;;7327915;19;109775;-65
2023/04/30 01:58:11;;;;;;;;;;;9.60;99.90;;;;;;7334415;19;110185;-65
2023/04/30 02:00:38;;;;;;;;;;;9.60;99.90;;;;;;7339759;19;110523;-65
2023/04/30 02:03:06;;;;;;;;;;;9.50;99.90;;;;;;7331997;19;109887;-64
2023/04/30 02:05:33;;;;;;;;;;;9.40;99.90;;;;;;7334808;19;114136;-65
2023/04/30 02:08:00;;;;;;;;;;;9.50;99.90;;;;;;7330886;19;111225;-65
2023/04/30 02:10:29;;;;;;;;;;;9.40;99.90;;;;;;7335409;19;109753;-65
2023/04/30 02:12:56;;;;;;;;;;;9.40;99.90;;;;;;7332097;19;109712;-65
2023/04/30 02:15:23;;;;;;;;;;;9.40;99.90;;;;;;7330746;19;113836;-65
2023/04/30 02:17:50;;;;;;;;;;;9.40;99.90;;;;;;7336550;19;109504;-66
2023/04/30 02:20:17;;;;;;;;;;;9.30;99.90;;;;;;7330153;19;109546;-68
2023/04/30 02:25:25;;;;;;;;;;;9.20;99.90;;;;;;7330508;19;113010;-67
2023/04/30 02:27:52;;;;;;;;;;;9.20;99.90;;;;;;7330286;19;110107;-66
2023/04/30 02:30:19;;;;;;;;;;;9.20;99.90;;;;;;7332652;19;110749;-66
2023/04/30 02:32:47;;;;;;;;;;;9.20;99.90;;;;;;7333869;19;110459;-65
2023/04/30 02:35:14;;;;;;;;;;;9.20;99.90;;;;;;7328191;19;112217;-66
2023/04/30 02:37:41;;;;;;;;;;;9.30;99.90;;;;;;7333574;19;109501;-65
2023/04/30 02:40:09;;;;;;;;;;;9.30;99.90;;;;;;7337659;19;111078;-66
2023/04/30 02:42:36;;;;;;;;;;;9.20;99.90;;;;;;7340104;19;110904;-65
2023/04/30 02:45:03;;;;;;;;;;;9.20;99.90;;;;;;7345538;19;110795;-66
2023/04/30 02:47:31;;;;;;;;;;;9.10;99.90;;;;;;7337047;19;110607;-66
2023/04/30 02:49:58;;;;;;;;;;;9.10;99.90;;;;;;7341527;19;110723;-66
2023/04/30 02:52:25;;;;;;;;;;;9.10;99.90;;;;;;7335886;19;110089;-66
2023/04/30 02:54:52;;;;;;;;;;;9.10;99.90;;;;;;7340024;19;110564;-66
2023/04/30 02:57:19;;;;;;;;;;;9.10;99.90;;;;;;7340300;19;109666;-66
2023/04/30 02:59:46;;;;;;;;;;;9.20;99.90;;;;;;7338922;19;109693;-66
2023/04/30 03:02:13;;;;;;;;;;;9.20;99.90;;;;;;7337917;19;110480;-65
2023/04/30 03:04:40;;;;;;;;;;;9.20;99.90;;;;;;7346672;19;109950;-66
2023/04/30 03:07:07;;;;;;;;;;;9.20;99.90;;;;;;7338741;19;110667;-66
2023/04/30 03:09:35;;;;;;;;;;;9.20;99.90;;;;;;7333025;19;110811;-66
2023/04/30 03:12:02;;;;;;;;;;;9.20;99.90;;;;;;7339751;19;109788;-66
2023/04/30 03:14:29;;;;;;;;;;;9.20;99.90;;;;;;7337177;19;109823;-65
2023/04/30 03:16:57;;;;;;;;;;;9.20;99.90;;;;;;7338291;19;110048;-66
2023/04/30 03:19:24;;;;;;;;;;;9.30;99.90;;;;;;7338065;19;112476;-66
2023/04/30 03:21:54;;;;;;;;;;;9.30;99.90;;;;;;7336913;19;110973;-67
2023/04/30 03:24:21;;;;;;;;;;;9.20;99.90;;;;;;7334673;19;110412;-68
2023/04/30 03:26:48;;;;;;;;;;;9.20;99.90;;;;;;7339882;19;109887;-66
2023/04/30 03:29:16;;;;;;;;;;;9.20;99.90;;;;;;7334208;19;110778;-66
2023/04/30 03:31:42;;;;;;;;;;;9.10;99.90;;;;;;7340188;19;110062;-66
2023/04/30 03:34:10;;;;;;;;;;;9.10;99.90;;;;;;7330249;19;110832;-66
2023/04/30 03:36:37;;;;;;;;;;;9.00;99.90;;;;;;7336830;19;109756;-66
2023/04/30 03:39:04;;;;;;;;;;;8.90;99.90;;;;;;7334625;19;111943;-66
2023/04/30 03:41:32;;;;;;;;;;;8.80;99.90;;;;;;7337863;19;111964;-66
2023/04/30 03:43:59;;;;;;;;;;;8.80;99.90;;;;;;7337069;19;110208;-66
2023/04/30 03:46:26;;;;;;;;;;;8.70;99.90;;;;;;7336181;19;110387;-66
2023/04/30 03:48:53;;;;;;;;;;;8.60;99.90;;;;;;7338482;19;110966;-66
2023/04/30 03:51:20;;;;;;;;;;;8.60;99.90;;;;;;7338081;19;109377;-66
2023/04/30 03:53:47;;;;;;;;;;;8.50;99.90;;;;;;7335384;19;114598;-66
2023/04/30 03:56:14;;;;;;;;;;;8.50;99.90;;;;;;7339544;19;110438;-66
2023/04/30 03:58:41;;;;;;;;;;;8.40;99.90;;;;;;7335870;19;109283;-66
2023/04/30 04:01:08;;;;;;;;;;;8.40;99.90;;;;;;7334253;19;114774;-66
2023/04/30 04:03:35;;;;;;;;;;;8.30;99.90;;;;;;7336939;19;109760;-66
2023/04/30 04:06:03;;;;;;;;;;;8.30;99.90;;;;;;7335129;19;109621;-66
2023/04/30 04:08:42;;;;;;;;;;;8.40;99.90;;;;;;7335397;19;110421;-66
2023/04/30 04:11:10;;;;;;;;;;;8.40;99.90;;;;;;7338838;19;110578;-67
2023/04/30 04:13:37;;;;;;;;;;;8.40;99.90;;;;;;7333920;19;111087;-66
2023/04/30 04:16:07;;;;;;;;;;;8.40;99.90;;;;;;7335048;19;110792;-66
2023/04/30 04:18:35;;;;;;;;;;;8.40;99.90;;;;;;7335230;19;110144;-66
2023/04/30 04:21:03;;;;;;;;;;;8.40;99.90;;;;;;7334052;19;110854;-66
2023/04/30 04:23:30;;;;;;;;;;;8.50;99.90;;;;;;7337628;19;110518;-66
2023/04/30 04:25:57;;;;;;;;;;;8.50;99.90;;;;;;7336170;19;110062;-66
2023/04/30 04:28:25;;;;;;;;;;;8.60;99.90;;;;;;7337821;19;110234;-66
2023/04/30 04:30:52;;;;;;;;;;;8.60;99.90;;;;;;7331440;19;109565;-66
2023/04/30 04:33:19;;;;;;;;;;;8.60;99.90;;;;;;7340247;19;109770;-66
2023/04/30 04:35:46;;;;;;;;;;;8.60;99.90;;;;;;7333019;19;111632;-65
2023/04/30 04:38:14;;;;;;;;;;;8.50;99.90;;;;;;7336113;19;113718;-65
2023/04/30 04:40:49;;;;;;;;;;;8.60;99.90;;;;;;7332865;19;110269;-65
2023/04/30 04:43:16;;;;;;;;;;;8.60;99.90;;;;;;7336204;19;109610;-66
2023/04/30 04:45:43;;;;;;;;;;;8.60;99.90;;;;;;7332249;19;109954;-66
2023/04/30 04:48:10;;;;;;;;;;;8.60;99.90;;;;;;7336916;19;110298;-66
2023/04/30 04:50:37;;;;;;;;;;;8.60;99.90;;;;;;7331471;19;109762;-65
2023/04/30 04:53:04;;;;;;;;;;;8.60;99.90;;;;;;7340263;19;109414;-66
2023/04/30 04:55:31;;;;;;;;;;;8.60;99.90;;;;;;7336218;19;110940;-66
2023/04/30 04:57:59;;;;;;;;;;;8.70;99.90;;;;;;7334135;19;110359;-66
2023/04/30 05:00:26;;;;;;;;;;;8.70;99.90;;;;;;7334190;19;110768;-65
2023/04/30 05:02:53;;;;;;;;;;;8.80;99.90;;;;;;7332793;19;109568;-66
2023/04/30 05:05:20;;;;;;;;;;;8.90;99.90;;;;;;7334866;19;109845;-66
2023/04/30 05:07:49;;;;;;;;;;;9.00;99.90;;;;;;7335490;19;110811;-66
2023/04/30 05:10:17;;;;;;;;;;;9.00;99.90;;;;;;7335787;19;111488;-65
2023/04/30 05:12:44;;;;;;;;;;;9.10;99.90;;;;;;7332916;19;109370;-66
2023/04/30 05:15:11;;;;;;;;;;;9.10;99.90;;;;;;7339809;19;110084;-65
2023/04/30 05:17:38;;;;;;;;;;;9.20;99.90;;;;;;7334792;19;111307;-65
2023/04/30 05:20:06;;;;;;;;;;;9.10;99.90;;;;;;7333549;19;113208;-65
2023/04/30 05:22:33;;;;;;;;;;;9.20;99.90;;;;;;7333547;19;110780;-65
2023/04/30 05:25:00;;;;;;;;;;;9.10;99.90;;;;;;7335951;19;110140;-65
2023/04/30 05:27:27;;;;;;;;;;;9.20;99.90;;;;;;7330661;19;111873;-65
2023/04/30 05:29:54;;;;;;;;;;;9.30;99.90;;;;;;7335504;19;109443;-66
2023/04/30 05:32:22;;;;;;;;;;;9.30;99.90;;;;;;7333047;19;110966;-65
2023/04/30 05:34:49;;;;;;;;;;;9.40;99.90;;;;;;7334037;19;110494;-71
2023/04/30 05:37:18;;;;;;;;;;;9.50;99.90;;;;;;7338114;19;110462;-70
2023/04/30 05:39:45;;;;;;;;;;;9.50;99.90;;;;;;7332431;19;110441;-72
2023/04/30 05:42:12;;;;;;;;;;;9.40;99.90;;;;;;7332926;19;111852;-70
2023/04/30 05:44:40;;;;;;;;;;;9.60;99.90;;;;;;7336092;19;113517;-70
2023/04/30 05:47:07;;;;;;;;;;;9.70;99.90;;;;;;7332010;19;110394;-70
2023/04/30 05:49:34;;;;;;;;;;;9.90;99.90;;;;;;7338671;19;109345;-70
2023/04/30 05:52:02;;;;;;;;;;;10.00;99.90;;;;;;7333027;19;109818;-70
2023/04/30 05:54:30;;;;;;;;;;;10.10;99.90;;;;;;7332184;19;110366;-70
2023/04/30 05:56:57;;;;;;;;;;;10.30;99.90;;;;;;7330573;19;110924;-70
2023/04/30 05:59:24;;;;;;;;;;;10.40;99.90;;;;;;7338214;19;110799;-69
2023/04/30 06:01:51;;;;;;;;;;;10.50;99.90;;;;;;7334185;19;109407;-70
2023/04/30 06:04:21;;;;;;;;;;;10.60;99.90;;;;;;7332116;19;110313;-70
2023/04/30 06:06:48;;;;;;;;;;;10.80;99.90;;;;;;7334433;19;110805;-70
2023/04/30 06:09:15;;;;;;;;;;;11.00;99.90;;;;;;7327205;19;109772;-70
2023/04/30 06:11:44;;;;;;;;;;;11.20;99.90;;;;;;7334041;19;109654;-70
2023/04/30 06:14:11;;;;;;;;;;;11.00;99.90;;;;;;7324310;19;113211;-70
2023/04/30 06:16:38;;;;;;;;;;;11.00;99.90;;;;;;7331363;19;113750;-70
2023/04/30 06:19:05;;;;;;;;;;;11.10;99.90;;;;;;7326342;19;109493;-70
2023/04/30 06:21:32;;;;;;;;;;;11.20;99.90;;;;;;7335303;19;110924;-70
2023/04/30 06:23:59;;;;;;;;;;;11.50;99.90;;;;;;7327744;19;109506;-71
2023/04/30 06:26:26;;;;;;;;;;;11.50;99.90;;;;;;7330426;19;113724;-70
2023/04/30 06:28:53;;;;;;;;;;;11.50;99.90;;;;;;7329922;19;109719;-70
2023/04/30 06:31:21;;;;;;;;;;;11.60;99.90;;;;;;7328971;19;112999;-70
2023/04/30 06:33:49;;;;;;;;;;;11.80;99.90;;;;;;7329026;19;110766;-70
2023/04/30 06:36:17;;;;;;;;;;;11.80;99.90;;;;;;7330605;19;111822;-71
2023/04/30 06:38:47;;;;;;;;;;;11.80;99.90;;;;;;7328355;19;110227;-70
2023/04/30 06:41:15;;;;;;;;;;;11.90;99.90;;;;;;7326988;19;110971;-71
2023/04/30 06:43:42;;;;;;;;;;;12.20;99.90;;;;;;7335943;19;109931;-70
2023/04/30 06:46:09;;;;;;;;;;;12.20;99.90;;;;;;7326012;19;114146;-70
2023/04/30 06:48:36;;;;;;;;;;;12.30;99.90;;;;;;7329713;19;110039;-70
2023/04/30 06:51:03;;;;;;;;;;;12.40;99.90;;;;;;7330032;19;113006;-70
2023/04/30 06:53:30;;;;;;;;;;;12.50;99.90;;;;;;7331947;19;110114;-70
2023/04/30 06:55:58;;;;;;;;;;;12.70;99.90;;;;;;7333706;19;110040;-70
2023/04/30 06:58:25;;;;;;;;;;;12.70;99.90;;;;;;7326907;19;110145;-70
2023/04/30 07:00:53;;;;;;;;;;;12.70;99.90;;;;;;7330770;19;111196;-72
2023/04/30 07:03:20;;;;;;;;;;;12.70;99.90;;;;;;7330361;19;111084;-71
2023/04/30 07:05:47;;;;;;;;;;;12.90;99.90;;;;;;7330256;19;110745;-73
2023/04/30 07:08:14;;;;;;;;;;;13.00;99.90;;;;;;7329501;19;109607;-73
2023/04/30 07:10:41;;;;;;;;;;;13.10;99.90;;;;;;7333795;19;109566;-77
2023/04/30 07:13:08;;;;;;;;;;;13.10;99.90;;;;;;7324673;19;110561;-73
2023/04/30 07:15:35;;;;;;;;;;;13.20;99.90;;;;;;7333848;19;109824;-70
2023/04/30 07:18:03;;;;;;;;;;;13.20;99.90;;;;;;7328062;19;110780;-73
2023/04/30 07:20:30;;;;;;;;;;;13.30;99.90;;;;;;7330539;19;110608;-73
2023/04/30 07:22:58;;;;;;;;;;;13.40;99.90;;;;;;7330133;19;110756;-71
2023/04/30 07:25:25;;;;;;;;;;;13.60;99.90;;;;;;7336907;19;110403;-71
2023/04/30 07:27:54;;;;;;;;;;;13.80;99.90;;;;;;7337945;19;109623;-70
2023/04/30 07:30:21;;;;;;;;;;;13.90;99.90;;;;;;7338360;19;110141;-70
2023/04/30 07:32:50;;;;;;;;;;;14.00;99.90;;;;;;7336043;19;112822;-70
2023/04/30 07:35:17;;;;;;;;;;;14.00;99.90;;;;;;7335085;19;109686;-70
2023/04/30 07:37:45;;;;;;;;;;;14.00;99.90;;;;;;7338010;19;111624;-70
2023/04/30 07:40:12;;;;;;;;;;;14.10;99.90;;;;;;7334195;19;110899;-70
2023/04/30 07:42:54;;;;;;;;;;;14.20;99.90;;;;;;7341022;19;109847;-70
2023/04/30 07:45:21;;;;;;;;;;;14.30;99.90;;;;;;7335427;19;110548;-71
2023/04/30 07:47:48;;;;;;;;;;;14.40;99.90;;;;;;7344514;19;109893;-70
2023/04/30 07:50:16;;;;;;;;;;;14.50;99.90;;;;;;7336655;19;111181;-71
2023/04/30 07:52:43;;;;;;;;;;;14.60;99.90;;;;;;7340863;19;111038;-71
2023/04/30 07:55:10;;;;;;;;;;;14.80;99.90;;;;;;7335500;19;110242;-70
2023/04/30 07:57:37;;;;;;;;;;;14.90;99.90;;;;;;7339502;19;109527;-69
2023/04/30 08:00:05;;;;;;;;;;;15.00;99.90;;;;;;7335490;19;110000;-70
2023/04/30 08:02:33;;;;;;;;;;;15.40;99.90;;;;;;7337621;19;109869;-71
2023/04/30 08:05:00;;;;;;;;;;;15.20;99.90;;;;;;7336829;19;109976;-70
2023/04/30 08:07:27;;;;;;;;;;;15.20;99.90;;;;;;7334618;19;110774;-70
2023/04/30 08:09:54;;;;;;;;;;;15.30;99.90;;;;;;7345656;19;109495;-70
2023/04/30 08:12:21;;;;;;;;;;;15.40;99.90;;;;;;7336481;19;110036;-71
2023/04/30 08:14:48;;;;;;;;;;;15.40;99.90;;;;;;7338546;19;110722;-70
2023/04/30 08:17:15;;;;;;;;;;;15.60;99.90;;;;;;7333222;19;110636;-70
2023/04/30 08:19:42;;;;;;;;;;;15.50;99.90;;;;;;7336269;19;110160;-70
2023/04/30 08:22:10;;;;;;;;;;;15.70;99.90;;;;;;7333760;19;110785;-69
2023/04/30 08:24:37;;;;;;;;;;;15.80;99.90;;;;;;7337679;19;110303;-69
2023/04/30 08:27:04;;;;;;;;;;;15.90;99.90;;;;;;7333265;19;110436;-69
2023/04/30 08:29:31;;;;;;;;;;;15.90;99.90;;;;;;7337518;19;109960;-70
2023/04/30 08:32:01;;;;;;;;;;;15.90;99.90;;;;;;7340345;19;110087;-71
2023/04/30 08:34:28;;;;;;;;;;;16.00;99.90;;;;;;7335905;19;109917;-71
2023/04/30 08:36:55;;;;;;;;;;;16.10;99.90;;;;;;7336452;19;109863;-69
2023/04/30 08:39:23;;;;;;;;;;;16.40;99.90;;;;;;7334353;19;110082;-71
2023/04/30 08:41:54;;;;;;;;;;;16.10;99.90;;;;;;7334612;19;111665;-69
2023/04/30 08:44:22;;;;;;;;;;;16.30;99.90;;;;;;7336046;19;109767;-70
2023/04/30 08:46:53;;;;;;;;;;;16.40;99.90;;;;;;7336632;19;111082;-69
2023/04/30 08:55:51;;;;;;;;;;;16.70;99.90;;;;;;7334165;19;112085;-73
2023/04/30 08:58:18;;;;;;;;;;;16.90;99.90;;;;;;7335264;19;109158;-73
2023/04/30 09:00:45;;;;;;;;;;;17.10;99.90;;;;;;7336227;19;110723;-73
2023/04/30 09:03:12;;;;;;;;;;;17.10;99.90;;;;;;7333092;19;109719;-74
2023/04/30 09:05:40;;;;;;;;;;;17.10;99.90;;;;;;7336003;19;109431;-75
2023/04/30 09:08:07;;;;;;;;;;;17.20;99.90;;;;;;7334944;19;110550;-74
2023/04/30 09:10:35;;;;;;;;;;;17.30;99.90;;;;;;7335801;19;113092;-73
2023/04/30 09:13:08;;;;;;;;;;;17.50;99.90;;;;;;7335229;19;110770;-74
2023/04/30 09:15:36;;;;;;;;;;;17.40;99.90;;;;;;7342013;19;110065;-75
2023/04/30 09:18:11;;;;;;;;;;;17.50;99.90;;;;;;7334410;19;112797;-73
2023/04/30 09:20:52;;;;;;;;;;;17.40;99.90;;;;;;7333805;19;110181;-75
2023/04/30 09:23:19;;;;;;;;;;;17.20;99.90;;;;;;7335988;19;111109;-74
2023/04/30 09:25:46;;;;;;;;;;;17.40;99.90;;;;;;7334872;19;110240;-75
2023/04/30 09:28:13;;;;;;;;;;;17.40;99.90;;;;;;7332822;19;111625;-74
2023/04/30 09:30:41;;;;;;;;;;;17.40;99.90;;;;;;7336585;19;109323;-75
2023/04/30 09:33:08;;;;;;;;;;;17.20;99.90;;;;;;7336068;19;109941;-66
2023/04/30 09:35:38;;;;;;;;;;;17.20;99.90;;;;;;7335232;19;110539;-68
2023/04/30 09:38:05;;;;;;;;;;;17.50;99.90;;;;;;7339520;19;110309;-69
2023/04/30 09:40:50;;;;;;;;;;;17.60;99.90;;;;;;7338269;19;110891;-67
2023/04/30 09:43:17;;;;;;;;;;;17.50;99.90;;;;;;7334414;19;109937;-68
2023/04/30 09:45:51;;;;;;;;;;;17.40;99.90;;;;;;7336746;19;110009;-71
2023/04/30 09:48:22;;;;;;;;;;;17.50;99.90;;;;;;7337693;19;110247;-77
2023/04/30 09:50:49;;;;;;;;;;;17.60;99.90;;;;;;7336611;19;109994;-80
2023/04/30 09:53:17;;;;;;;;;;;17.90;99.90;;;;;;7333403;19;109100;-79
2023/04/30 09:55:45;;;;;;;;;;;17.90;99.90;;;;;;7337962;19;110205;-78
2023/04/30 09:58:12;;;;;;;;;;;17.90;99.90;;;;;;7332317;19;111921;-76
2023/04/30 10:00:40;;;;;;;;;;;18.30;99.90;;;;;;7341412;19;109242;-77
2023/04/30 10:03:11;;;;;;;;;;;18.50;99.90;;;;;;7332866;19;109749;-76
2023/04/30 10:05:42;;;;;;;;;;;18.60;99.90;;;;;;7335585;19;111239;-79
2023/04/30 10:08:12;;;;;;;;;;;18.60;99.90;;;;;;7332501;19;112581;-79
2023/04/30 10:10:40;;;;;;;;;;;18.70;99.90;;;;;;7335749;19;111594;-78
2023/04/30 10:13:09;;;;;;;;;;;18.40;99.90;;;;;;7333890;19;109780;-79
2023/04/30 10:15:43;;;;;;;;;;;18.30;99.90;;;;;;7337131;19;110726;-79
2023/04/30 10:18:18;;;;;;;;;;;18.60;99.90;;;;;;7333887;19;109846;-78
2023/04/30 10:20:46;;;;;;;;;;;18.70;99.90;;;;;;7334133;19;110311;-79
2023/04/30 10:23:13;;;;;;;;;;;18.70;99.90;;;;;;7342963;19;110212;-78
2023/04/30 10:25:40;;;;;;;;;;;18.60;99.90;;;;;;7337435;19;109510;-78
2023/04/30 10:28:07;;;;;;;;;;;18.60;99.90;;;;;;7334935;19;110184;-75
2023/04/30 10:30:35;;;;;;;;;;;18.80;99.90;;;;;;7331928;19;110095;-78
2023/04/30 10:33:09;;;;;;;;;;;18.80;99.90;;;;;;7332421;19;109760;-75
2023/04/30 10:35:44;;;;;;;;;;;19.00;99.90;;;;;;7335426;19;110164;-76
2023/04/30 10:38:17;;;;;;;;;;;19.40;99.90;;;;;;7332694;19;110370;-78
2023/04/30 10:40:45;;;;;;;;;;;19.20;99.90;;;;;;7336086;19;110009;-79
2023/04/30 10:43:12;;;;;;;;;;;19.20;99.90;;;;;;7331889;19;110676;-76
2023/04/30 10:45:42;;;;;;;;;;;19.10;99.90;;;;;;7341314;19;109843;-75
2023/04/30 10:48:10;;;;;;;;;;;19.20;99.90;;;;;;7332721;19;111326;-76
2023/04/30 10:50:41;;;;;;;;;;;18.90;99.90;;;;;;7334921;19;109994;-74
2023/04/30 10:53:16;;;;;;;;;;;18.90;99.90;;;;;;7331199;19;109639;-76
2023/04/30 10:55:50;;;;;;;;;;;19.20;99.90;;;;;;7331811;19;110314;-75
2023/04/30 10:58:31;;;;;;;;;;;19.50;99.90;;;;;;7329167;19;110246;-76
2023/04/30 11:01:14;;;;;;;;;;;19.40;99.90;;;;;;7341488;19;109804;-78
2023/04/30 11:03:42;;;;;;;;;;;19.60;99.90;;;;;;7340914;19;110629;-76
2023/04/30 11:06:13;;;;;;;;;;;19.60;99.40;;;;;;7337610;19;110299;-76
2023/04/30 11:08:44;;;;;;;;;;;19.60;99.60;;;;;;7342669;19;112209;-75
2023/04/30 11:11:16;;;;;;;;;;;19.70;99.50;;;;;;7338155;19;109870;-75
2023/04/30 11:13:44;;;;;;;;;;;19.70;99.50;;;;;;7336529;19;109412;-81
2023/04/30 11:16:11;;;;;;;;;;;19.80;99.60;;;;;;7338829;19;109158;-78
2023/04/30 11:18:45;;;;;;;;;;;19.80;99.20;;;;;;7342286;19;111151;-79
2023/04/30 11:21:12;;;;;;;;;;;19.70;96.90;;;;;;7337486;19;111419;-79
2023/04/30 11:23:40;;;;;;;;;;;19.60;97.80;;;;;;7339390;19;110096;-78
2023/04/30 11:26:08;;;;;;;;;;;19.50;97.40;;;;;;7336785;19;111312;-80
2023/04/30 11:28:36;;;;;;;;;;;19.50;99.20;;;;;;7333854;19;110312;-77
2023/04/30 11:31:04;;;;;;;;;;;19.70;98.20;;;;;;7329976;19;109963;-77
2023/04/30 11:33:32;;;;;;;;;;;19.70;99.40;;;;;;7331841;19;110190;-77
2023/04/30 11:36:00;;;;;;;;;;;20.00;99.40;;;;;;7332321;19;113088;-77
2023/04/30 11:38:33;;;;;;;;;;;20.20;97.90;;;;;;7335751;19;110547;-77
2023/04/30 11:41:01;;;;;;;;;;;20.40;98.50;;;;;;7336998;19;109598;-77
2023/04/30 11:43:28;;;;;;;;;;;20.50;98.10;;;;;;7338705;19;112598;-77
2023/04/30 11:46:04;;;;;;;;;;;20.40;97.10;;;;;;7335031;19;109763;-76
2023/04/30 11:48:32;;;;;;;;;;;20.40;99.20;;;;;;7339221;19;109743;-76
2023/04/30 11:51:01;;;;;;;;;;;20.50;98.60;;;;;;7342796;19;111321;-76
2023/04/30 11:53:29;;;;;;;;;;;20.90;97.60;;;;;;7337692;19;111089;-76
2023/04/30 11:56:01;;;;;;;;;;;21.00;97.60;;;;;;7335071;19;110263;-76
2023/04/30 11:58:32;;;;;;;;;;;21.00;98.40;;;;;;7335199;19;110049;-77
2023/04/30 12:00:59;;;;;;;;;;;20.90;96.00;;;;;;7337347;19;110947;-75
2023/04/30 12:03:27;;;;;;;;;;;20.70;97.80;;;;;;7335160;19;110942;-76
2023/04/30 12:05:54;;;;;;;;;;;20.60;95.90;;;;;;7339068;19;113887;-76
2023/04/30 12:08:21;;;;;;;;;;;20.60;97.60;;;;;;7339029;19;110050;-76
2023/04/30 12:10:48;;;;;;;;;;;21.10;97.20;;;;;;7330292;19;111231;-77
2023/04/30 12:13:15;;;;;;;;;;;21.30;97.80;;;;;;7341116;19;109641;-77
2023/04/30 12:15:56;;;;;;;;;;;21.70;95.70;;;;;;7330388;19;111441;-77
2023/04/30 12:18:23;;;;;;;;;;;21.60;95.40;;;;;;7339444;19;109694;-76
2023/04/30 12:20:50;;;;;;;;;;;21.60;96.40;;;;;;7337760;19;109538;-77
2023/04/30 12:23:18;;;;;;;;;;;21.70;95.10;;;;;;7333989;19;110983;-76
2023/04/30 12:25:46;;;;;;;;;;;22.00;95.20;;;;;;7333439;19;110265;-75
2023/04/30 12:28:13;;;;;;;;;;;22.10;95.10;;;;;;7332602;19;111249;-76
2023/04/30 12:30:41;;;;;;;;;;;22.10;96.20;;;;;;7331602;19;110290;-76
2023/04/30 12:33:09;;;;;;;;;;;21.90;95.30;;;;;;7335071;19;110581;-76
2023/04/30 12:35:40;;;;;;;;;;;21.90;96.00;;;;;;7338043;19;110270;-77
2023/04/30 12:38:08;;;;;;;;;;;21.90;95.50;;;;;;7334584;19;110769;-76
2023/04/30 12:40:35;;;;;;;;;;;21.80;94.90;;;;;;7335651;19;110788;-77
2023/04/30 12:43:02;;;;;;;;;;;21.60;93.70;;;;;;7332812;19;110967;-76
2023/04/30 12:45:52;;;;;;;;;;;21.40;94.30;;;;;;7329904;19;110350;-76
2023/04/30 12:48:21;;;;;;;;;;;21.50;94.00;;;;;;7330525;19;109878;-75
2023/04/30 12:50:55;;;;;;;;;;;21.50;94.50;;;;;;7330943;19;113138;-76
2023/04/30 12:53:23;;;;;;;;;;;21.60;93.60;;;;;;7334935;19;109499;-75
2023/04/30 12:56:09;;;;;;;;;;;21.70;95.50;;;;;;7331146;19;110828;-76
2023/04/30 12:58:37;;;;;;;;;;;21.70;96.40;;;;;;7338748;19;111111;-76
2023/04/30 13:01:05;;;;;;;;;;;22.00;94.30;;;;;;7328115;19;110687;-77
2023/04/30 13:03:32;;;;;;;;;;;22.40;94.10;;;;;;7333717;19;113976;-76
2023/04/30 13:06:01;;;;;;;;;;;22.30;93.40;;;;;;7331389;19;109392;-76
2023/04/30 13:08:29;;;;;;;;;;;22.20;92.10;;;;;;7334291;19;109321;-76
2023/04/30 13:10:57;;;;;;;;;;;22.10;94.20;;;;;;7331409;19;111565;-76
2023/04/30 13:13:24;;;;;;;;;;;22.20;94.60;;;;;;7333320;19;111121;-76
2023/04/30 13:15:51;;;;;;;;;;;22.20;93.00;;;;;;7332977;19;111910;-76
2023/04/30 13:18:18;;;;;;;;;;;22.60;92.90;;;;;;7336363;19;110146;-76
2023/04/30 13:20:45;;;;;;;;;;;22.80;92.90;;;;;;7335822;19;111635;-76
2023/04/30 13:23:12;;;;;;;;;;;22.60;93.80;;;;;;7331685;19;110203;-76
2023/04/30 13:25:42;;;;;;;;;;;22.70;93.60;;;;;;7335665;19;111754;-77
2023/04/30 13:28:09;;;;;;;;;;;22.50;92.50;;;;;;7332871;19;111361;-76
2023/04/30 13:30:36;;;;;;;;;;;22.60;94.30;;;;;;7335256;19;110271;-76
2023/04/30 13:33:03;;;;;;;;;;;22.30;92.60;;;;;;7332807;19;110701;-76
2023/04/30 13:35:30;;;;;;;;;;;22.70;92.20;;;;;;7334935;19;109652;-76
2023/04/30 13:37:58;;;;;;;;;;;23.00;92.40;;;;;;7329929;19;110623;-76
2023/04/30 13:40:25;;;;;;;;;;;22.90;92.90;;;;;;7336752;19;109696;-76
2023/04/30 13:42:52;;;;;;;;;;;23.20;91.70;;;;;;7329486;19;110599;-77
2023/04/30 13:45:19;;;;;;;;;;;23.10;91.90;;;;;;7329990;19;110680;-76
2023/04/30 13:47:46;;;;;;;;;;;22.90;92.30;;;;;;7333976;19;110259;-76
2023/04/30 13:50:14;;;;;;;;;;;22.70;92.40;;;;;;7327838;19;110598;-77
2023/04/30 13:52:41;;;;;;;;;;;22.60;91.40;;;;;;7332264;19;112641;-76
2023/04/30 13:55:08;;;;;;;;;;;22.40;92.40;;;;;;7329465;19;109851;-75
2023/04/30 13:57:35;;;;;;;;;;;22.50;91.20;;;;;;7331963;19;110203;-76
2023/04/30 14:00:03;;;;;;;;;;;22.50;92.00;;;;;;7333881;19;109645;-77
2023/04/30 14:02:31;;;;;;;;;;;22.50;91.70;;;;;;7337589;19;109636;-76
2023/04/30 14:04:59;;;;;;;;;;;22.50;92.40;;;;;;7332739;19;110999;-76
2023/04/30 14:07:32;;;;;;;;;;;22.60;92.20;;;;;;7330374;19;110919;-77
2023/04/30 14:09:59;;;;;;;;;;;22.50;93.00;;;;;;7328223;19;110102;-76
2023/04/30 14:12:29;;;;;;;;;;;22.50;92.40;;;;;;7329262;19;109970;-76
2023/04/30 14:14:56;;;;;;;;;;;22.70;92.70;;;;;;7332130;19;109504;-76
2023/04/30 14:17:25;;;;;;;;;;;22.80;92.00;;;;;;7328974;19;110232;-77
2023/04/30 14:19:53;;;;;;;;;;;22.70;90.90;;;;;;7331722;19;111028;-77
2023/04/30 14:22:20;;;;;;;;;;;22.40;90.30;;;;;;7332354;19;110101;-77
2023/04/30 14:24:47;;;;;;;;;;;22.50;90.60;;;;;;7336527;19;113461;-76
2023/04/30 14:27:14;;;;;;;;;;;22.60;90.80;;;;;;7331207;19;110121;-76